Time;durP1;ratioP1;P1;durP2;ratioP2;P2;SDS_P1;SDS_P2;PMS_P1;PMS_P2;Temp;Humidity;BMP_temperature;BMP_pressure;BME280_temperature;BME280_humidity;BME280_pressure;Samples;Min_cycle;Max_cycle;Signal;HPM_P1;HPM_P2
2022/08/30 00:02:19;;;;;;;3.53;3.20;;;21.40;50.80;;;;;;5082924;28;20436;-69
2022/08/30 00:04:46;;;;;;;4.00;2.80;;;21.40;51.00;;;;;;5082550;28;20468;-69
2022/08/30 00:07:13;;;;;;;4.33;3.10;;;21.40;50.90;;;;;;5082001;28;20464;-69
2022/08/30 00:09:39;;;;;;;3.40;3.00;;;21.50;51.00;;;;;;5082463;28;20453;-69
2022/08/30 00:12:07;;;;;;;6.00;3.33;;;21.50;51.00;;;;;;5081727;28;20484;-69
2022/08/30 00:14:34;;;;;;;5.60;3.03;;;21.50;50.80;;;;;;5082394;28;20453;-69
2022/08/30 00:17:00;;;;;;;8.30;3.17;;;21.50;50.70;;;;;;5082602;28;20449;-69
2022/08/30 00:19:28;;;;;;;3.80;2.67;;;21.50;50.70;;;;;;5082833;28;20437;-69
2022/08/30 00:21:55;;;;;;;3.57;2.90;;;21.50;50.80;;;;;;5083586;28;20449;-69
2022/08/30 00:24:22;;;;;;;5.10;3.10;;;21.50;50.90;;;;;;5080942;28;21019;-69
2022/08/30 00:26:49;;;;;;;7.87;3.53;;;21.50;51.10;;;;;;5075473;28;20989;-71
2022/08/30 00:29:15;;;;;;;5.67;3.40;;;21.40;51.10;;;;;;5075405;28;20457;-70
2022/08/30 00:31:42;;;;;;;3.60;3.30;;;21.40;51.30;;;;;;5075036;28;20488;-70
2022/08/30 00:34:09;;;;;;;4.97;3.57;;;21.40;51.30;;;;;;5075348;28;20456;-70
2022/08/30 00:36:37;;;;;;;7.30;3.20;;;21.50;51.70;;;;;;5075267;28;20453;-71
2022/08/30 00:39:05;;;;;;;4.20;2.77;;;21.40;51.80;;;;;;5075218;28;20833;-71
2022/08/30 00:41:31;;;;;;;4.30;2.87;;;21.50;51.80;;;;;;5075514;28;20844;-71
2022/08/30 00:43:58;;;;;;;3.33;2.97;;;21.50;51.90;;;;;;5075076;28;20472;-71
2022/08/30 00:46:26;;;;;;;3.90;2.80;;;21.50;51.80;;;;;;5075057;28;20451;-71
2022/08/30 00:48:54;;;;;;;4.97;2.43;;;21.50;51.80;;;;;;5074746;28;20582;-71
2022/08/30 00:51:22;;;;;;;3.47;2.50;;;21.50;51.80;;;;;;5074943;28;20486;-71
2022/08/30 00:53:54;;;;;;;3.70;3.03;;;21.50;51.80;;;;;;5074887;28;20469;-71
2022/08/30 00:56:23;;;;;;;3.50;2.73;;;21.50;52.00;;;;;;5075279;28;20459;-71
2022/08/30 00:58:55;;;;;;;4.87;2.67;;;21.50;52.00;;;;;;5074874;28;20794;-71
2022/08/30 01:01:22;;;;;;;5.07;2.90;;;21.40;51.90;;;;;;5074926;28;20495;-71
2022/08/30 01:03:49;;;;;;;5.30;3.20;;;21.50;52.10;;;;;;5074658;28;20547;-71
2022/08/30 01:06:17;;;;;;;3.40;3.10;;;21.40;52.30;;;;;;5074891;28;20467;-71
2022/08/30 01:08:45;;;;;;;4.50;2.87;;;21.40;52.80;;;;;;5074855;28;20459;-71
2022/08/30 01:11:16;;;;;;;4.37;3.03;;;21.40;52.40;;;;;;5074855;28;20433;-71
2022/08/30 01:13:44;;;;;;;7.63;3.60;;;21.40;52.60;;;;;;5074623;28;20457;-71
2022/08/30 01:16:11;;;;;;;6.00;3.10;;;21.40;52.60;;;;;;5074564;28;20449;-70
2022/08/30 01:18:38;;;;;;;4.60;2.90;;;21.30;52.70;;;;;;5074488;28;20455;-71
2022/08/30 01:21:11;;;;;;;6.50;3.10;;;21.30;52.90;;;;;;5074480;28;20426;-71
2022/08/30 01:23:44;;;;;;;5.10;3.20;;;21.30;53.00;;;;;;5074190;28;20566;-71
2022/08/30 01:26:12;;;;;;;5.23;3.30;;;21.30;53.00;;;;;;5074420;28;20437;-71
2022/08/30 01:28:40;;;;;;;4.10;3.43;;;21.30;53.20;;;;;;5074300;28;20457;-71
2022/08/30 01:31:08;;;;;;;3.57;3.10;;;21.30;53.40;;;;;;5073965;28;20506;-71
2022/08/30 01:33:37;;;;;;;4.30;3.70;;;21.30;53.40;;;;;;5074169;28;20508;-71
2022/08/30 01:36:09;;;;;;;6.53;3.67;;;21.20;53.50;;;;;;5073835;28;20445;-71
2022/08/30 01:38:41;;;;;;;5.07;3.10;;;21.20;53.60;;;;;;5073849;28;21002;-71
2022/08/30 01:41:14;;;;;;;4.13;3.40;;;21.20;53.70;;;;;;5074741;28;20444;-71
2022/08/30 01:43:41;;;;;;;6.23;3.70;;;21.20;53.90;;;;;;5074404;28;20479;-71
2022/08/30 01:46:10;;;;;;;5.10;3.43;;;21.20;54.10;;;;;;5073838;28;20459;-71
2022/08/30 01:48:37;;;;;;;4.93;3.13;;;21.20;54.20;;;;;;5073620;28;20866;-71
2022/08/30 01:51:05;;;;;;;3.97;3.40;;;21.10;54.30;;;;;;5073621;28;20453;-71
2022/08/30 01:53:31;;;;;;;6.63;3.90;;;21.10;54.40;;;;;;5073667;28;20498;-71
2022/08/30 01:56:04;;;;;;;8.70;3.60;;;21.10;54.50;;;;;;5073857;28;20456;-71
2022/08/30 01:58:31;;;;;;;5.40;3.10;;;21.10;54.70;;;;;;5073523;28;20868;-71
2022/08/30 02:00:58;;;;;;;4.77;3.13;;;21.10;54.90;;;;;;5073728;28;20449;-71
2022/08/30 02:03:25;;;;;;;3.90;3.10;;;21.00;55.00;;;;;;5073740;28;20477;-71
2022/08/30 02:05:52;;;;;;;11.13;3.20;;;21.00;55.10;;;;;;5073828;28;20452;-71
2022/08/30 02:08:18;;;;;;;5.50;3.23;;;21.00;55.30;;;;;;5073271;28;20942;-71
2022/08/30 02:10:45;;;;;;;5.68;3.65;;;21.00;55.40;;;;;;5072213;28;20445;-71
2022/08/30 02:13:13;;;;;;;5.70;3.50;;;21.00;55.80;;;;;;5073313;28;20707;-70
2022/08/30 02:15:40;;;;;;;7.77;3.57;;;20.90;55.90;;;;;;5073528;28;20456;-70
2022/08/30 02:18:09;;;;;;;5.33;3.57;;;20.90;56.00;;;;;;5073775;28;20452;-71
2022/08/30 02:20:38;;;;;;;4.97;3.07;;;20.90;56.00;;;;;;5073737;28;20440;-71
2022/08/30 02:23:05;;;;;;;4.37;3.37;;;20.80;56.00;;;;;;5073396;28;20461;-71
2022/08/30 02:25:32;;;;;;;3.33;3.03;;;20.80;56.10;;;;;;5073439;28;20425;-71
2022/08/30 02:27:58;;;;;;;8.30;3.47;;;20.80;56.20;;;;;;5073448;28;20456;-71
2022/08/30 02:30:26;;;;;;;5.90;3.00;;;20.80;56.40;;;;;;5073164;28;20823;-71
2022/08/30 02:32:53;;;;;;;4.23;3.80;;;20.70;56.50;;;;;;5073017;28;21001;-71
2022/08/30 02:35:20;;;;;;;4.73;3.30;;;20.70;56.60;;;;;;5073356;28;20475;-71
2022/08/30 02:37:47;;;;;;;4.57;3.33;;;20.60;56.60;;;;;;5073547;28;20452;-71
2022/08/30 02:40:14;;;;;;;4.10;3.43;;;20.60;57.00;;;;;;5073076;28;20437;-71
2022/08/30 02:42:41;;;;;;;5.90;3.67;;;20.60;57.10;;;;;;5073123;28;21000;-70
2022/08/30 02:45:09;;;;;;;4.67;3.63;;;20.50;57.40;;;;;;5073513;28;20473;-70
2022/08/30 02:47:37;;;;;;;6.17;3.60;;;20.50;57.50;;;;;;5073535;28;20449;-70
2022/08/30 02:50:06;;;;;;;7.10;3.40;;;20.40;57.70;;;;;;5077246;28;20452;-71
2022/08/30 02:52:32;;;;;;;10.00;3.90;;;20.40;57.80;;;;;;5076674;28;20488;-71
2022/08/30 02:55:00;;;;;;;6.13;3.93;;;20.40;58.00;;;;;;5077207;28;20449;-71
2022/08/30 02:57:26;;;;;;;4.07;3.67;;;20.40;58.10;;;;;;5077519;28;20449;-70
2022/08/30 02:59:53;;;;;;;5.23;3.30;;;20.30;58.60;;;;;;5077134;28;20449;-70
2022/08/30 03:02:21;;;;;;;4.77;3.87;;;20.30;58.10;;;;;;5076936;28;20527;-71
2022/08/30 03:04:49;;;;;;;5.20;4.10;;;20.20;58.10;;;;;;5077138;28;20543;-71
2022/08/30 03:07:16;;;;;;;6.17;3.43;;;20.20;58.40;;;;;;5076779;28;20819;-71
2022/08/30 03:09:42;;;;;;;5.10;4.13;;;20.10;58.40;;;;;;5076913;28;20474;-71
2022/08/30 03:12:11;;;;;;;7.30;3.83;;;20.10;58.60;;;;;;5076393;28;20481;-71
2022/08/30 03:14:39;;;;;;;5.80;3.53;;;20.10;59.50;;;;;;5076873;28;20456;-70
2022/08/30 03:17:07;;;;;;;4.80;3.40;;;20.10;58.70;;;;;;5076821;28;20453;-70
2022/08/30 03:19:36;;;;;;;4.50;4.00;;;20.00;58.90;;;;;;5076295;28;20472;-71
2022/08/30 03:22:05;;;;;;;6.83;4.10;;;20.00;59.00;;;;;;5076437;28;20973;-71
2022/08/30 03:24:32;;;;;;;5.67;4.33;;;20.00;59.20;;;;;;5076425;28;20459;-71
2022/08/30 03:26:59;;;;;;;4.70;3.60;;;20.00;59.50;;;;;;5076684;28;20519;-71
2022/08/30 03:29:28;;;;;;;4.00;3.63;;;20.00;60.00;;;;;;5076223;28;20941;-71
2022/08/30 03:31:55;;;;;;;5.40;4.00;;;20.00;60.40;;;;;;5076373;28;20463;-71
2022/08/30 03:34:23;;;;;;;6.33;4.27;;;20.10;60.90;;;;;;5076613;28;20491;-70
2022/08/30 03:36:51;;;;;;;5.23;3.80;;;20.00;61.10;;;;;;5076607;28;20988;-70
2022/08/30 03:39:22;;;;;;;7.80;4.37;;;20.10;61.40;;;;;;5076111;28;20969;-70
2022/08/30 03:41:49;;;;;;;8.07;4.07;;;20.10;61.70;;;;;;5076419;28;20448;-71
2022/08/30 03:44:15;;;;;;;4.20;3.80;;;20.10;62.00;;;;;;5076323;28;20456;-71
2022/08/30 03:46:44;;;;;;;5.63;4.20;;;20.10;62.30;;;;;;5076343;28;20451;-71
2022/08/30 03:49:11;;;;;;;4.50;3.97;;;20.00;62.30;;;;;;5076017;28;20448;-71
2022/08/30 03:51:37;;;;;;;6.57;4.03;;;20.00;62.60;;;;;;5076305;28;20812;-71
2022/08/30 03:54:04;;;;;;;5.47;4.93;;;20.00;62.70;;;;;;5075837;28;20499;-71
2022/08/30 03:56:32;;;;;;;7.70;3.70;;;20.00;62.90;;;;;;5076092;28;20456;-70
2022/08/30 03:58:59;;;;;;;4.30;3.70;;;20.00;63.50;;;;;;5075859;28;20464;-70
2022/08/30 04:01:26;;;;;;;6.20;4.60;;;20.00;63.80;;;;;;5075766;28;20456;-72
2022/08/30 04:03:53;;;;;;;14.13;4.50;;;20.00;64.00;;;;;;5075979;28;20457;-71
2022/08/30 04:06:19;;;;;;;4.40;3.87;;;20.00;64.20;;;;;;5075661;28;20820;-71
2022/08/30 04:08:46;;;;;;;6.13;4.40;;;20.00;64.40;;;;;;5076068;28;20444;-70
2022/08/30 04:11:14;;;;;;;8.57;4.67;;;19.90;64.40;;;;;;5075684;28;20492;-70
2022/08/30 04:13:43;;;;;;;4.80;4.10;;;19.90;64.40;;;;;;5075468;28;20914;-70
2022/08/30 04:16:10;;;;;;;4.43;4.03;;;19.90;64.50;;;;;;5075884;28;20449;-71
2022/08/30 04:18:37;;;;;;;6.70;4.20;;;19.90;64.60;;;;;;5075809;28;20453;-70
2022/08/30 04:21:05;;;;;;;6.30;4.90;;;20.00;64.70;;;;;;5075339;28;20508;-70
2022/08/30 04:23:32;;;;;;;5.40;4.00;;;20.00;64.90;;;;;;5075061;28;21058;-71
2022/08/30 04:25:59;;;;;;;5.03;4.07;;;19.90;64.90;;;;;;5075916;28;20449;-70
2022/08/30 04:28:25;;;;;;;4.40;4.00;;;20.00;65.20;;;;;;5075388;28;20449;-71
2022/08/30 04:30:54;;;;;;;5.03;4.00;;;19.90;65.30;;;;;;5075321;28;20788;-71
2022/08/30 04:33:21;;;;;;;6.40;4.70;;;19.90;65.50;;;;;;5075126;28;20485;-71
2022/08/30 04:35:49;;;;;;;4.50;4.00;;;19.90;65.70;;;;;;5075397;28;20464;-71
2022/08/30 04:38:17;;;;;;;5.10;3.97;;;19.90;66.80;;;;;;5075535;28;20456;-70
2022/08/30 04:40:47;;;;;;;11.93;4.33;;;19.90;66.00;;;;;;5075292;28;20484;-70
2022/08/30 04:43:13;;;;;;;6.37;4.10;;;19.90;66.30;;;;;;5074736;28;20876;-69
2022/08/30 04:45:41;;;;;;;5.17;4.47;;;19.90;66.50;;;;;;5075104;28;20460;-71
2022/08/30 04:48:09;;;;;;;10.33;4.60;;;19.90;66.50;;;;;;5075066;28;20456;-73
2022/08/30 04:50:36;;;;;;;7.20;4.43;;;19.90;66.60;;;;;;5074895;28;20457;-72
2022/08/30 04:53:03;;;;;;;7.23;4.53;;;19.90;66.80;;;;;;5074667;28;20488;-71
2022/08/30 04:55:30;;;;;;;5.20;4.13;;;19.90;66.90;;;;;;5074795;28;20456;-71
2022/08/30 04:57:57;;;;;;;4.83;4.03;;;19.90;67.10;;;;;;5075091;28;20452;-71
2022/08/30 05:00:23;;;;;;;5.23;4.63;;;19.90;66.90;;;;;;5074728;28;20452;-71
2022/08/30 05:02:50;;;;;;;6.10;4.30;;;19.90;67.00;;;;;;5074700;28;20472;-72
2022/08/30 05:08:03;;;;;;;6.80;4.30;;;20.00;67.20;;;;;;5074894;28;20416;-71
2022/08/30 05:10:30;;;;;;;4.43;4.03;;;20.00;67.40;;;;;;5074499;28;20455;-71
2022/08/30 05:12:57;;;;;;;6.13;4.10;;;20.00;67.50;;;;;;5074202;28;20988;-71
2022/08/30 05:15:23;;;;;;;3.90;3.50;;;20.00;67.60;;;;;;5074626;28;20820;-70
2022/08/30 05:17:50;;;;;;;5.67;4.37;;;20.10;67.90;;;;;;5074456;28;20451;-71
2022/08/30 05:20:19;;;;;;;8.63;4.53;;;20.10;68.20;;;;;;5074288;28;20444;-71
2022/08/30 05:22:48;;;;;;;10.03;3.93;;;20.10;68.30;;;;;;5074071;28;20472;-71
2022/08/30 05:25:16;;;;;;;9.67;4.57;;;20.10;68.40;;;;;;5073764;28;20924;-71
2022/08/30 05:27:43;;;;;;;4.43;4.03;;;20.20;68.40;;;;;;5074255;28;20464;-71
2022/08/30 05:30:11;;;;;;;6.63;3.93;;;20.20;68.50;;;;;;5074265;28;20449;-71
2022/08/30 05:32:38;;;;;;;6.37;4.40;;;20.20;68.70;;;;;;5073990;28;20473;-71
2022/08/30 05:35:06;;;;;;;8.67;4.27;;;20.30;68.60;;;;;;5074180;28;20452;-71
2022/08/30 05:37:34;;;;;;;8.10;4.93;;;20.40;68.80;;;;;;5074137;28;20514;-71
2022/08/30 05:40:01;;;;;;;5.83;3.93;;;20.40;69.10;;;;;;5074271;28;20448;-71
2022/08/30 05:42:28;;;;;;;5.40;4.57;;;20.40;69.10;;;;;;5074896;28;20484;-71
2022/08/30 05:44:55;;;;;;;5.80;4.80;;;20.50;68.80;;;;;;5074298;28;20437;-71
2022/08/30 05:47:22;;;;;;;4.33;3.70;;;20.50;68.50;;;;;;5073912;28;20449;-72
2022/08/30 05:49:48;;;;;;;4.50;4.10;;;20.50;68.40;;;;;;5073974;28;20456;-71
2022/08/30 05:52:17;;;;;;;6.27;4.47;;;20.60;68.40;;;;;;5073748;28;20478;-71
2022/08/30 05:54:45;;;;;;;4.73;4.30;;;20.60;68.00;;;;;;5073750;28;20476;-71
2022/08/30 05:57:12;;;;;;;5.20;4.60;;;20.70;68.00;;;;;;5073899;28;20453;-72
2022/08/30 05:59:39;;;;;;;4.73;4.33;;;20.70;68.00;;;;;;5073567;28;20955;-71
2022/08/30 06:02:06;;;;;;;4.83;4.23;;;20.70;68.00;;;;;;5073141;28;20993;-71
2022/08/30 06:04:32;;;;;;;6.80;4.13;;;20.70;68.00;;;;;;5073767;28;20498;-71
2022/08/30 06:06:59;;;;;;;4.77;4.37;;;20.80;68.20;;;;;;5073431;28;20818;-71
2022/08/30 06:09:26;;;;;;;6.47;4.60;;;20.80;68.10;;;;;;5073563;28;20453;-71
2022/08/30 06:11:54;;;;;;;6.77;4.37;;;20.90;68.10;;;;;;5073225;28;20933;-71
2022/08/30 06:14:21;;;;;;;4.80;3.93;;;20.90;66.90;;;;;;5073361;28;20484;-71
2022/08/30 06:16:48;;;;;;;10.33;4.20;;;21.00;66.90;;;;;;5073735;28;20452;-71
2022/08/30 06:19:15;;;;;;;4.07;3.60;;;21.00;67.00;;;;;;5073284;28;20449;-72
2022/08/30 06:21:46;;;;;;;7.33;4.33;;;21.10;66.30;;;;;;5071928;28;20459;-72
2022/08/30 06:24:14;;;;;;;7.20;4.60;;;21.20;66.30;;;;;;5072487;28;20452;-70
2022/08/30 06:26:42;;;;;;;6.03;4.27;;;21.20;66.60;;;;;;5073906;28;20786;-70
2022/08/30 06:29:12;;;;;;;6.80;4.77;;;21.30;65.50;;;;;;5073499;28;20447;-69
2022/08/30 06:31:39;;;;;;;5.50;4.47;;;21.30;66.10;;;;;;5073206;28;20458;-71
2022/08/30 06:34:06;;;;;;;5.67;5.17;;;21.40;66.30;;;;;;5073382;28;20485;-70
2022/08/30 06:36:33;;;;;;;9.47;4.90;;;21.40;66.60;;;;;;5073263;28;20901;-70
2022/08/30 06:39:00;;;;;;;4.73;4.17;;;21.40;66.70;;;;;;5073080;28;20489;-70
2022/08/30 06:41:30;;;;;;;9.00;3.77;;;21.40;66.00;;;;;;5073443;28;20848;-70
2022/08/30 06:43:59;;;;;;;8.70;3.93;;;21.40;65.00;;;;;;5072915;28;20981;-70
2022/08/30 06:46:29;;;;;;;6.07;3.70;;;21.50;65.20;;;;;;5073402;28;20433;-70
2022/08/30 06:48:56;;;;;;;7.53;4.60;;;21.50;65.20;;;;;;5073396;28;20445;-70
2022/08/30 06:51:25;;;;;;;5.80;5.30;;;21.60;65.50;;;;;;5073158;28;20942;-71
2022/08/30 06:53:52;;;;;;;8.27;4.93;;;21.60;65.30;;;;;;5073283;28;20483;-69
2022/08/30 06:56:20;;;;;;;7.70;4.10;;;21.80;65.90;;;;;;5073291;28;20491;-70
2022/08/30 06:58:47;;;;;;;5.60;4.60;;;21.90;65.30;;;;;;5073504;28;20476;-70
2022/08/30 07:01:15;;;;;;;4.70;4.30;;;22.00;64.60;;;;;;5073205;28;20449;-71
2022/08/30 07:03:44;;;;;;;9.43;5.23;;;22.20;63.90;;;;;;5073113;28;20473;-70
2022/08/30 07:06:11;;;;;;;8.40;5.43;;;22.30;63.70;;;;;;5073385;28;20449;-70
2022/08/30 07:08:38;;;;;;;7.40;4.50;;;22.50;63.50;;;;;;5073481;28;20452;-70
2022/08/30 07:11:06;;;;;;;9.10;5.00;;;22.70;62.40;;;;;;5073439;28;20452;-70
2022/08/30 07:13:33;;;;;;;4.90;4.40;;;22.80;62.60;;;;;;5073235;28;21006;-70
2022/08/30 07:16:00;;;;;;;5.60;4.30;;;23.00;62.30;;;;;;5073268;28;20437;-70
2022/08/30 07:21:15;;;;;;;4.50;3.93;;;23.20;59.50;;;;;;5073016;28;20456;-70
2022/08/30 07:23:44;;;;;;;5.63;3.70;;;23.40;59.00;;;;;;5072769;28;20483;-70
2022/08/30 07:26:12;;;;;;;8.13;4.47;;;23.50;58.40;;;;;;5073121;28;20455;-70
2022/08/30 07:28:41;;;;;;;6.90;3.90;;;23.60;58.80;;;;;;5073068;28;20460;-70
2022/08/30 07:31:08;;;;;;;7.40;4.67;;;23.80;58.80;;;;;;5073214;28;20456;-70
2022/08/30 07:33:35;;;;;;;7.63;4.10;;;23.90;58.00;;;;;;5073105;28;20484;-70
2022/08/30 07:36:04;;;;;;;7.80;4.80;;;24.10;57.50;;;;;;5076202;28;20455;-70
2022/08/30 07:38:32;;;;;;;7.13;3.80;;;24.30;57.20;;;;;;5076836;28;20938;-71
2022/08/30 07:41:00;;;;;;;6.63;3.70;;;24.40;56.60;;;;;;5077320;28;20467;-71
2022/08/30 07:43:27;;;;;;;4.40;4.00;;;24.60;56.00;;;;;;5076752;28;20476;-71
2022/08/30 07:45:54;;;;;;;8.43;3.30;;;24.70;55.20;;;;;;5075930;28;20821;-70
2022/08/30 07:48:21;;;;;;;10.40;4.53;;;24.90;54.60;;;;;;5076357;28;20453;-71
2022/08/30 07:50:48;;;;;;;9.90;4.30;;;25.00;54.70;;;;;;5076145;28;20464;-70
2022/08/30 07:53:15;;;;;;;6.23;3.93;;;25.10;54.60;;;;;;5076418;28;20477;-71
2022/08/30 07:55:43;;;;;;;6.93;3.63;;;25.20;54.00;;;;;;5075921;28;20477;-70
2022/08/30 07:58:09;;;;;;;5.40;4.07;;;25.20;53.50;;;;;;5076146;28;20453;-70
2022/08/30 08:00:36;;;;;;;9.00;3.60;;;25.30;53.60;;;;;;5075905;28;20448;-70
2022/08/30 08:03:07;;;;;;;5.30;3.50;;;25.40;53.60;;;;;;5076137;28;20464;-71
2022/08/30 08:05:38;;;;;;;5.97;3.67;;;25.50;53.50;;;;;;5075619;28;20449;-71
2022/08/30 08:08:04;;;;;;;7.10;3.90;;;25.50;53.20;;;;;;5075851;28;20433;-71
2022/08/30 08:10:32;;;;;;;11.63;4.00;;;25.60;53.60;;;;;;5075993;28;20468;-70
2022/08/30 08:13:00;;;;;;;8.20;4.40;;;25.60;53.70;;;;;;5075821;28;20469;-71
2022/08/30 08:15:27;;;;;;;3.80;3.30;;;25.60;53.30;;;;;;5075537;28;21009;-70
2022/08/30 08:17:54;;;;;;;6.63;3.60;;;25.70;53.00;;;;;;5075691;28;20433;-70
2022/08/30 08:20:21;;;;;;;7.50;3.67;;;25.80;52.60;;;;;;5075718;28;20815;-70
2022/08/30 08:22:48;;;;;;;6.87;4.07;;;25.90;52.50;;;;;;5075539;28;20465;-70
2022/08/30 08:25:16;;;;;;;5.57;3.57;;;25.90;52.50;;;;;;5075615;28;20838;-70
2022/08/30 08:27:43;;;;;;;6.80;4.40;;;26.10;52.30;;;;;;5075787;28;20825;-70
2022/08/30 08:30:12;;;;;;;5.37;2.73;;;26.20;52.00;;;;;;5075601;28;20452;-71
2022/08/30 08:32:39;;;;;;;6.83;3.97;;;26.30;51.70;;;;;;5075367;28;20989;-70
2022/08/30 08:35:07;;;;;;;5.63;3.50;;;26.40;51.50;;;;;;5075163;28;20989;-71
2022/08/30 08:37:34;;;;;;;4.50;3.13;;;26.60;51.30;;;;;;5075801;28;20449;-70
2022/08/30 08:40:00;;;;;;;5.20;3.40;;;26.80;50.70;;;;;;5075567;28;20449;-72
2022/08/30 08:42:36;;;;;;;10.40;3.63;;;27.00;50.00;;;;;;5075719;28;20503;-71
2022/08/30 08:45:10;;;;;;;5.67;3.40;;;27.20;49.30;;;;;;5075716;28;20799;-71
2022/08/30 08:47:41;;;;;;;8.40;3.47;;;27.50;48.70;;;;;;5075242;28;20478;-72
2022/08/30 08:50:12;;;;;;;6.53;3.77;;;27.70;48.60;;;;;;5075325;28;20437;-72
2022/08/30 08:55:34;;;;;;;6.20;2.93;;;28.10;47.70;;;;;;5075429;28;20452;-71
2022/08/30 08:58:01;;;;;;;5.00;2.90;;;28.30;47.00;;;;;;5075967;28;20456;-71
2022/08/30 09:00:28;;;;;;;5.30;3.30;;;28.50;46.10;;;;;;5075286;28;20430;-72
2022/08/30 09:02:59;;;;;;;8.43;5.90;;;28.70;45.60;;;;;;5075415;28;20525;-72
2022/08/30 09:05:31;;;;;;;5.33;3.90;;;28.80;45.10;;;;;;5075747;28;20472;-71
2022/08/30 09:08:01;;;;;;;5.90;3.70;;;28.80;44.70;;;;;;5075089;28;20536;-72
2022/08/30 09:10:31;;;;;;;4.53;3.07;;;28.80;44.60;;;;;;5075057;28;20433;-71
2022/08/30 09:12:58;;;;;;;4.80;3.20;;;28.80;44.70;;;;;;5075194;28;20454;-71
2022/08/30 09:15:28;;;;;;;4.17;3.03;;;28.80;44.60;;;;;;5075278;28;20483;-71
2022/08/30 09:18:00;;;;;;;4.80;3.13;;;28.90;44.30;;;;;;5074816;28;20433;-70
2022/08/30 09:20:30;;;;;;;5.63;3.70;;;29.00;44.30;;;;;;5075291;28;20433;-70
2022/08/30 09:22:58;;;;;;;7.43;3.23;;;29.10;44.40;;;;;;5075374;28;20495;-72
2022/08/30 09:25:27;;;;;;;5.40;3.40;;;29.20;43.80;;;;;;5075021;28;20433;-71
2022/08/30 09:28:07;;;;;;;8.47;3.70;;;29.20;43.80;;;;;;5075066;28;20443;-71
2022/08/30 09:30:38;;;;;;;6.30;2.87;;;29.40;43.70;;;;;;5074432;28;20940;-70
2022/08/30 09:33:19;;;;;;;7.40;3.60;;;29.50;43.30;;;;;;5074823;28;20841;-70
2022/08/30 09:35:48;;;;;;;4.00;2.80;;;29.70;42.50;;;;;;5074345;28;20481;-71
2022/08/30 09:38:20;;;;;;;4.03;3.07;;;29.70;42.30;;;;;;5074039;28;20421;-70
2022/08/30 09:40:49;;;;;;;4.77;2.90;;;29.90;42.50;;;;;;5074306;28;20437;-71
2022/08/30 09:43:22;;;;;;;4.63;3.30;;;30.00;41.80;;;;;;5074406;28;20465;-71
2022/08/30 09:46:04;;;;;;;5.63;3.40;;;30.20;41.50;;;;;;5074314;28;20438;-71
2022/08/30 09:48:36;;;;;;;6.27;3.00;;;30.40;40.30;;;;;;5074658;28;20433;-71
2022/08/30 09:51:38;;;;;;;5.07;3.07;;;30.70;39.60;;;;;;5074282;28;20445;-71
2022/08/30 09:54:14;;;;;;;4.73;3.20;;;31.00;39.10;;;;;;5073989;28;20472;-71
2022/08/30 09:56:50;;;;;;;4.90;2.53;;;31.40;38.70;;;;;;5074068;28;20428;-71
2022/08/30 09:59:32;;;;;;;6.03;3.00;;;31.70;37.60;;;;;;5073713;28;20441;-71
2022/08/30 10:02:06;;;;;;;7.73;3.40;;;32.00;36.80;;;;;;5073867;28;20432;-71
2022/08/30 10:04:40;;;;;;;5.83;2.83;;;32.50;36.70;;;;;;5074154;28;20920;-70
2022/08/30 10:07:12;;;;;;;2.80;2.60;;;32.80;35.80;;;;;;5074106;28;20464;-70
2022/08/30 10:09:47;;;;;;;5.77;3.90;;;33.10;34.50;;;;;;5074060;28;20814;-70
2022/08/30 10:12:21;;;;;;;8.80;3.60;;;33.30;33.90;;;;;;5074378;28;20472;-70
2022/08/30 10:15:04;;;;;;;12.73;3.87;;;33.50;33.60;;;;;;5073728;28;20844;-70
2022/08/30 10:17:43;;;;;;;6.20;3.17;;;33.60;33.40;;;;;;5074421;28;20476;-70
2022/08/30 10:20:19;;;;;;;14.80;4.00;;;33.70;32.60;;;;;;5074165;28;21002;-71
2022/08/30 10:22:50;;;;;;;7.67;3.63;;;33.90;32.20;;;;;;5074166;28;20463;-71
2022/08/30 10:25:21;;;;;;;6.57;3.37;;;33.80;32.00;;;;;;5073965;28;20851;-71
2022/08/30 10:27:54;;;;;;;8.10;3.50;;;33.80;32.30;;;;;;5074657;28;20433;-71
2022/08/30 10:30:21;;;;;;;4.37;3.20;;;33.80;33.10;;;;;;5074673;28;20437;-70
2022/08/30 10:32:52;;;;;;;5.87;3.87;;;33.70;32.60;;;;;;5075548;28;20504;-70
2022/08/30 10:35:22;;;;;;;7.67;3.40;;;33.60;32.40;;;;;;5074825;28;20977;-70
2022/08/30 10:37:53;;;;;;;6.53;3.57;;;33.80;32.10;;;;;;5075057;28;20445;-70
2022/08/30 10:43:20;;;;;;;6.33;2.90;;;34.30;30.40;;;;;;5074444;28;20447;-71
2022/08/30 10:45:53;;;;;;;15.57;4.20;;;34.20;30.40;;;;;;5074248;28;20428;-71
2022/08/30 10:48:26;;;;;;;4.20;3.33;;;33.90;30.90;;;;;;5074688;28;20437;-71
2022/08/30 10:50:58;;;;;;;6.27;3.10;;;33.60;30.90;;;;;;5074679;28;20463;-71
2022/08/30 10:53:32;;;;;;;5.33;3.33;;;33.30;31.20;;;;;;5075144;28;20479;-71
2022/08/30 10:56:05;;;;;;;7.43;3.40;;;33.40;31.60;;;;;;5075751;28;20476;-72
2022/08/30 10:58:32;;;;;;;5.60;3.07;;;33.60;31.30;;;;;;5075265;28;20429;-72
2022/08/30 11:01:19;;;;;;;4.77;3.30;;;34.00;30.90;;;;;;5075408;28;20455;-72
2022/08/30 11:04:33;;;;;;;18.73;3.90;;;34.20;30.20;;;;;;5075218;28;20863;-72
2022/08/30 11:07:13;;;;;;;4.87;2.63;;;34.70;30.80;;;;;;5076531;28;20447;-71
2022/08/30 11:10:20;;;;;;;8.93;3.60;;;35.60;29.50;;;;;;5077539;28;20822;-72
2022/08/30 11:12:59;;;;;;;9.20;3.37;;;36.10;28.80;;;;;;5079737;28;20468;-70
2022/08/30 11:15:28;;;;;;;7.80;3.40;;;36.40;27.90;;;;;;5082857;28;20468;-70
2022/08/30 11:18:00;;;;;;;4.43;2.73;;;36.80;26.70;;;;;;5079918;28;20782;-70
2022/08/30 11:20:38;;;;;;;4.90;2.70;;;37.40;26.60;;;;;;5076565;28;20186;-69
2022/08/30 11:23:29;;;;;;;7.13;3.23;;;38.00;25.80;;;;;;5076511;28;20225;-70
2022/08/30 11:25:58;;;;;;;6.85;2.53;;;38.40;24.80;;;;;;5075506;28;20205;-70
2022/08/30 11:29:04;;;;;;;7.22;3.05;;;38.80;24.60;;;;;;5076619;28;20201;-70
2022/08/30 11:31:45;;;;;;;4.50;2.58;;;39.10;23.90;;;;;;5051158;28;20666;-71
2022/08/30 11:34:12;;;;;;;5.57;2.88;;;39.30;23.50;;;;;;5060585;28;20647;-70
2022/08/30 11:37:06;;;;;;;5.70;2.63;;;39.60;23.40;;;;;;5076413;28;20236;-72
2022/08/30 11:39:55;;;;;;;5.32;2.90;;;39.80;23.10;;;;;;5076285;28;20189;-71
2022/08/30 11:42:44;;;;;;;9.07;3.00;;;40.00;23.00;;;;;;5076593;28;20222;-71
2022/08/30 11:45:59;;;;;;;3.95;2.60;;;40.40;22.70;;;;;;5076746;28;20191;-70
2022/08/30 11:48:42;;;;;;;5.28;2.60;;;41.10;22.20;;;;;;5076561;28;20194;-70
2022/08/30 11:51:33;;;;;;;9.32;3.20;;;41.30;21.70;;;;;;5076518;28;20186;-70
2022/08/30 11:54:09;;;;;;;3.72;2.72;;;41.00;21.60;;;;;;5073518;28;20218;-71
2022/08/30 11:56:49;;;;;;;4.38;2.70;;;40.70;21.80;;;;;;5076712;28;20210;-71
2022/08/30 11:59:25;;;;;;;5.93;3.70;;;40.90;21.90;;;;;;5076282;28;20194;-71
2022/08/30 12:01:52;;;;;;;9.10;3.03;;;41.00;22.10;;;;;;5076344;28;20190;-71
2022/08/30 12:04:34;;;;;;;8.15;4.22;;;41.20;22.00;;;;;;5076147;28;20198;-71
2022/08/30 12:07:03;;;;;;;7.47;3.17;;;41.50;21.30;;;;;;5076139;28;20187;-71
2022/08/30 12:10:03;;;;;;;5.10;3.40;;;41.90;21.10;;;;;;5075888;28;20202;-71
2022/08/30 12:12:51;;;;;;;4.40;2.92;;;42.40;20.60;;;;;;5070614;28;20707;-71
2022/08/30 12:15:44;;;;;;;3.88;2.80;;;42.90;19.80;;;;;;5075698;28;20228;-71
2022/08/30 12:18:29;;;;;;;4.75;2.70;;;43.30;19.50;;;;;;5075661;28;20276;-71
2022/08/30 12:21:15;;;;;;;2.78;2.35;;;43.80;19.30;;;;;;5074992;28;20186;-71
2022/08/30 12:23:51;;;;;;;5.82;2.10;;;44.30;18.50;;;;;;5075735;28;20303;-71
2022/08/30 12:26:29;;;;;;;4.13;2.30;;;44.70;18.00;;;;;;5075641;28;20186;-71
2022/08/30 12:29:10;;;;;;;3.80;2.70;;;45.20;17.70;;;;;;5075266;28;20190;-71
2022/08/30 12:31:41;;;;;;;5.05;1.90;;;45.60;17.30;;;;;;5075542;28;20565;-71
2022/08/30 12:34:09;;;;;;;7.25;2.38;;;45.60;16.60;;;;;;5076582;28;20183;-71
2022/08/30 12:36:38;;;;;;;2.83;2.55;;;45.60;17.00;;;;;;5075398;28;20230;-72
2022/08/30 12:39:11;;;;;;;5.00;2.38;;;45.60;17.10;;;;;;5075008;28;20202;-72
2022/08/30 12:41:38;;;;;;;5.10;2.58;;;45.50;17.20;;;;;;5075313;28;20187;-72
2022/08/30 12:44:09;;;;;;;2.58;2.08;;;45.40;16.90;;;;;;5075267;28;20225;-71
2022/08/30 12:46:36;;;;;;;4.07;3.00;;;45.40;17.00;;;;;;5075730;28;20190;-71
2022/08/30 12:49:04;;;;;;;3.85;2.70;;;44.90;17.10;;;;;;5075328;28;20209;-72
2022/08/30 12:51:40;;;;;;;4.38;2.28;;;44.30;17.70;;;;;;5075012;28;20202;-71
2022/08/30 12:54:14;;;;;;;3.05;2.45;;;43.90;18.30;;;;;;5074819;28;20229;-71
2022/08/30 12:57:02;;;;;;;4.45;2.40;;;43.90;18.40;;;;;;5074874;28;20674;-71
2022/08/30 12:59:50;;;;;;;3.33;2.17;;;44.50;17.90;;;;;;5074967;28;20217;-71
2022/08/30 13:02:20;;;;;;;4.07;2.40;;;45.20;17.40;;;;;;5074864;28;20632;-71
2022/08/30 13:04:48;;;;;;;3.58;2.20;;;45.90;16.40;;;;;;5074753;28;20193;-71
2022/08/30 13:07:32;;;;;;;4.43;2.78;;;46.40;16.20;;;;;;5074446;28;20209;-71
2022/08/30 13:10:10;;;;;;;4.28;1.98;;;47.00;15.60;;;;;;5074460;28;20193;-71
2022/08/30 13:12:37;;;;;;;3.80;2.28;;;47.50;15.50;;;;;;5074517;28;20260;-72
2022/08/30 13:15:17;;;;;;;5.25;2.40;;;47.80;15.10;;;;;;5074466;28;20198;-72